createdAt,value
2019-04-22T00:00:10.772Z,14.50
2019-04-22T00:02:43.563Z,14.40
2019-04-22T00:05:16.400Z,14.40
2019-04-22T00:08:03.189Z,14.40
2019-04-22T00:10:32.364Z,14.40
2019-04-22T00:13:02.960Z,14.30
2019-04-22T00:15:27.919Z,14.30
2019-04-22T00:20:30.782Z,14.30
2019-04-22T00:22:56.684Z,14.20
2019-04-22T00:25:34.508Z,14.20
2019-04-22T00:28:04.900Z,14.20
2019-04-22T00:30:36.163Z,14.10
2019-04-22T00:33:04.810Z,14.10
2019-04-22T00:35:29.528Z,14.10
2019-04-22T00:38:09.348Z,14.00
2019-04-22T00:40:34.006Z,14.10
2019-04-22T00:42:58.297Z,14.00
2019-04-22T00:45:31.164Z,14.00
2019-04-22T00:47:50.786Z,14.00
2019-04-22T00:50:23.920Z,14.00
2019-04-22T00:52:59.050Z,13.90
2019-04-22T00:55:18.203Z,13.90
2019-04-22T00:57:52.041Z,13.90
2019-04-22T01:00:19.916Z,13.90
2019-04-22T01:02:49.707Z,13.90
2019-04-22T01:05:19.756Z,13.90
2019-04-22T01:07:43.539Z,13.90
2019-04-22T01:10:11.642Z,13.90
2019-04-22T01:12:39.885Z,13.90
2019-04-22T01:15:07.318Z,13.90
2019-04-22T01:17:40.439Z,13.80
2019-04-22T01:20:45.309Z,13.90
2019-04-22T01:22:34.295Z,13.80
2019-04-22T01:25:02.416Z,13.80
2019-04-22T01:27:26.325Z,13.80
2019-04-22T01:29:51.553Z,13.80
2019-04-22T01:32:17.548Z,13.70
2019-04-22T01:34:52.728Z,13.70
2019-04-22T01:37:24.077Z,13.70
2019-04-22T01:42:37.360Z,13.60
2019-04-22T01:44:50.540Z,13.60
2019-04-22T01:47:34.270Z,13.60
2019-04-22T01:49:52.806Z,13.50
2019-04-22T01:52:25.445Z,13.50
2019-04-22T01:55:10.594Z,13.50
2019-04-22T01:57:19.104Z,13.40
2019-04-22T01:59:40.450Z,13.40
2019-04-22T02:02:16.261Z,13.40
2019-04-22T02:07:17.994Z,13.30
2019-04-22T02:09:47.506Z,13.30
2019-04-22T02:12:14.425Z,13.30
2019-04-22T02:17:14.702Z,13.30
2019-04-22T02:19:35.689Z,13.30
2019-04-22T02:22:11.541Z,13.20
2019-04-22T02:24:39.932Z,13.30
2019-04-22T02:27:08.921Z,13.20
2019-04-22T02:29:36.846Z,13.20
2019-04-22T02:32:28.231Z,13.20
2019-04-22T02:37:04.849Z,13.20
2019-04-22T02:39:24.231Z,13.20
2019-04-22T02:42:06.660Z,13.10
2019-04-22T02:44:31.451Z,13.10
2019-04-22T02:47:09.933Z,13.10
2019-04-22T02:49:26.803Z,13.10
2019-04-22T02:51:49.515Z,13.00
2019-04-22T02:56:44.114Z,13.00
2019-04-22T02:59:28.383Z,13.00
2019-04-22T03:04:24.636Z,13.00
2019-04-22T03:16:40.650Z,12.80
2019-04-22T03:21:54.328Z,12.80
2019-04-22T03:24:17.566Z,12.80
2019-04-22T03:29:04.568Z,12.80
2019-04-22T03:35:09.718Z,12.70
2019-04-22T03:37:17.455Z,12.70
2019-04-22T03:44:23.501Z,12.60
2019-04-22T03:46:50.962Z,12.60
2019-04-22T03:51:45.801Z,12.60
2019-04-22T03:54:19.301Z,12.60
2019-04-22T03:59:17.919Z,12.60
2019-04-22T04:01:46.422Z,12.50
2019-04-22T04:06:43.526Z,12.50
2019-04-22T04:08:58.933Z,12.40
2019-04-22T04:11:38.996Z,12.40
2019-04-22T04:14:05.168Z,12.40
2019-04-22T04:16:30.407Z,12.40
2019-04-22T04:26:28.867Z,12.30
2019-04-22T04:29:13.736Z,12.30
2019-04-22T04:31:25.211Z,12.30
2019-04-22T04:33:50.980Z,12.30
2019-04-22T04:36:14.715Z,12.30
2019-04-22T04:41:19.381Z,12.30
2019-04-22T04:43:47.960Z,12.30
2019-04-22T04:46:21.788Z,12.30
2019-04-22T04:51:30.574Z,12.40
2019-04-22T04:53:29.197Z,12.40
2019-04-22T04:56:02.734Z,12.40
2019-04-22T05:03:41.704Z,12.40
2019-04-22T05:05:56.702Z,12.50
2019-04-22T05:08:39.012Z,12.50
2019-04-22T05:13:26.195Z,12.60
2019-04-22T05:16:03.213Z,12.60
2019-04-22T05:21:09.303Z,12.70
2019-04-22T05:23:20.676Z,12.70
2019-04-22T05:25:41.365Z,12.70
2019-04-22T05:28:10.368Z,12.70
2019-04-22T05:30:56.724Z,12.80
2019-04-22T05:33:10.724Z,12.80
2019-04-22T05:35:31.163Z,12.80
2019-04-22T05:38:09.805Z,12.90
2019-04-22T05:40:32.505Z,12.90
2019-04-22T05:43:00.194Z,13.00
2019-04-22T05:45:44.482Z,13.10
2019-04-22T05:47:56.279Z,13.10
2019-04-22T05:50:48.831Z,13.20
2019-04-22T05:52:57.302Z,13.20
2019-04-22T05:55:30.581Z,13.30
2019-04-22T05:57:57.751Z,13.40
2019-04-22T06:00:30.933Z,13.50
2019-04-22T06:05:24.722Z,13.60
2019-04-22T06:07:47.188Z,13.70
2019-04-22T06:10:39.298Z,13.70
2019-04-22T06:12:46.158Z,13.80
2019-04-22T06:15:20.258Z,13.90
2019-04-22T06:17:57.644Z,14.00
2019-04-22T06:20:15.453Z,14.10
2019-04-22T06:22:50.442Z,14.20
2019-04-22T06:25:20.607Z,14.20
2019-04-22T06:27:42.998Z,14.30
2019-04-22T06:30:19.049Z,14.40
2019-04-22T06:32:54.190Z,14.40
2019-04-22T06:35:16.678Z,14.60
2019-04-22T06:37:43.340Z,14.60
2019-04-22T06:40:11.026Z,14.70
2019-04-22T06:42:36.257Z,14.80
2019-04-22T06:45:07.312Z,14.90
2019-04-22T06:47:44.103Z,15.00
2019-04-22T06:49:59.958Z,15.10
2019-04-22T06:52:22.381Z,15.20
2019-04-22T06:55:05.938Z,15.30
2019-04-22T06:57:25.565Z,15.50
2019-04-22T06:59:52.015Z,15.60
2019-04-22T07:02:23.812Z,15.70
2019-04-22T07:04:51.489Z,15.80
2019-04-22T07:07:20.051Z,15.90
2019-04-22T07:09:46.516Z,16.00
2019-04-22T07:12:23.518Z,16.00
2019-04-22T07:14:41.761Z,16.10
2019-04-22T07:17:31.031Z,16.10
2019-04-22T07:22:11.121Z,16.10
2019-04-22T07:24:55.930Z,16.20
2019-04-22T07:29:32.823Z,16.40
2019-04-22T07:37:11.004Z,16.30
2019-04-22T07:39:30.819Z,16.30
2019-04-22T07:42:01.119Z,16.40
2019-04-22T07:44:32.235Z,16.50
2019-04-22T07:47:07.486Z,16.50
2019-04-22T07:49:33.822Z,16.60
2019-04-22T07:51:50.263Z,16.70
2019-04-22T07:54:20.795Z,16.80
2019-04-22T07:56:58.252Z,16.90
2019-04-22T07:59:26.503Z,17.00
2019-04-22T08:02:04.679Z,17.10
2019-04-22T08:04:30.023Z,17.10
2019-04-22T08:09:20.102Z,17.20
2019-04-22T08:14:15.027Z,17.20
2019-04-22T08:16:43.980Z,17.20
2019-04-22T08:19:09.061Z,17.20
2019-04-22T08:21:38.350Z,17.20
2019-04-22T08:24:07.187Z,17.30
2019-04-22T08:26:31.982Z,17.40
2019-04-22T08:29:05.645Z,17.40
2019-04-22T08:31:36.998Z,17.50
2019-04-22T08:34:05.013Z,17.70
2019-04-22T08:36:54.225Z,17.80
2019-04-22T08:41:33.524Z,18.10
2019-04-22T08:43:57.359Z,18.20
2019-04-22T08:46:27.390Z,18.30
2019-04-22T08:53:57.502Z,18.70
2019-04-22T08:56:29.610Z,18.70
2019-04-22T08:58:50.710Z,18.80
2019-04-22T09:01:18.838Z,18.90
2019-04-22T09:03:46.603Z,19.10
2019-04-22T09:06:28.309Z,19.10
2019-04-22T09:08:44.722Z,19.10
2019-04-22T09:11:18.365Z,18.80
2019-04-22T09:13:45.351Z,18.70
2019-04-22T09:16:10.681Z,18.60
2019-04-22T09:18:34.822Z,18.60
2019-04-22T09:21:15.382Z,18.70
2019-04-22T09:23:42.191Z,18.80
2019-04-22T09:26:06.651Z,19.10
2019-04-22T09:28:32.678Z,19.40
2019-04-22T09:31:01.950Z,19.60
2019-04-22T09:33:28.943Z,19.90
2019-04-22T09:36:07.802Z,20.30
2019-04-22T09:38:32.852Z,20.50
2019-04-22T09:40:52.506Z,20.70
2019-04-22T09:43:25.608Z,20.90
2019-04-22T09:45:51.141Z,21.00
2019-04-22T09:48:23.758Z,21.00
2019-04-22T09:53:20.223Z,21.40
2019-04-22T09:55:41.469Z,21.60
2019-04-22T09:58:14.135Z,21.60
2019-04-22T10:00:54.186Z,21.70
2019-04-22T10:03:16.605Z,21.80
2019-04-22T10:05:47.715Z,21.90
2019-04-22T10:08:18.547Z,22.00
2019-04-22T10:10:41.727Z,22.20
2019-04-22T10:13:12.835Z,22.30
2019-04-22T10:15:33.783Z,22.50
2019-04-22T10:18:02.949Z,22.60
2019-04-22T10:20:31.454Z,22.60
2019-04-22T10:25:29.867Z,22.70
2019-04-22T10:28:08.992Z,22.70
2019-04-22T10:30:39.094Z,22.70
2019-04-22T10:32:52.223Z,22.70
2019-04-22T10:35:13.195Z,22.70
2019-04-22T10:37:36.558Z,22.70
2019-04-22T10:40:11.290Z,22.70
2019-04-22T10:42:40.935Z,22.70
2019-04-22T10:45:10.018Z,22.80
2019-04-22T10:47:38.206Z,22.80
2019-04-22T10:50:07.829Z,22.60
2019-04-22T10:52:35.148Z,22.60
2019-04-22T10:55:03.674Z,22.60
2019-04-22T10:57:31.813Z,22.70
2019-04-22T10:59:58.600Z,22.60
2019-04-22T11:02:25.583Z,22.60
2019-04-22T11:04:52.467Z,22.70
2019-04-22T11:07:24.571Z,22.80
2019-04-22T11:09:58.146Z,22.70
2019-04-22T11:12:20.749Z,22.60
2019-04-22T11:14:45.520Z,22.40
2019-04-22T11:17:13.513Z,22.20
2019-04-22T11:19:41.427Z,22.10
2019-04-22T11:22:16.877Z,22.10
2019-04-22T11:24:37.028Z,22.10
2019-04-22T11:27:05.220Z,22.10
2019-04-22T11:29:31.943Z,22.10
2019-04-22T11:32:00.026Z,22.10
2019-04-22T11:34:26.960Z,22.10
2019-04-22T11:36:54.977Z,22.10
2019-04-22T11:39:21.859Z,22.00
2019-04-22T11:41:49.848Z,22.10
2019-04-22T11:44:17.183Z,22.20
2019-04-22T11:46:44.984Z,22.30
2019-04-22T11:49:12.148Z,22.60
2019-04-22T11:51:40.096Z,22.90
2019-04-22T11:54:07.199Z,23.20
2019-04-22T11:56:34.916Z,23.50
2019-04-22T11:59:02.645Z,23.70
2019-04-22T12:01:30.710Z,23.90
2019-04-22T12:03:59.856Z,24.20
2019-04-22T12:06:26.527Z,24.50
2019-04-22T12:08:54.167Z,24.70
2019-04-22T12:11:22.756Z,24.60
2019-04-22T12:13:49.552Z,24.60
2019-04-22T12:16:17.174Z,24.50
2019-04-22T12:18:44.967Z,24.50
2019-04-22T12:21:13.029Z,24.50
2019-04-22T12:23:40.978Z,24.30
2019-04-22T12:26:13.046Z,24.10
2019-04-22T12:28:37.056Z,23.80
2019-04-22T12:31:04.065Z,23.40
2019-04-22T12:33:31.607Z,23.20
2019-04-22T12:36:00.141Z,23.20
2019-04-22T12:38:27.413Z,23.20
2019-04-22T12:40:59.277Z,23.30
2019-04-22T12:43:25.709Z,23.30
2019-04-22T12:45:52.131Z,23.20
2019-04-22T12:48:19.077Z,23.20
2019-04-22T12:50:48.008Z,23.20
2019-04-22T12:53:17.791Z,23.20
2019-04-22T12:55:43.914Z,23.30
2019-04-22T12:58:11.825Z,23.40
2019-04-22T13:00:38.709Z,23.50
2019-04-22T13:03:05.351Z,23.70
2019-04-22T13:05:33.281Z,23.70
2019-04-22T13:08:00.230Z,23.60
2019-04-22T13:10:40.464Z,23.50
2019-04-22T13:12:58.637Z,23.50
2019-04-22T13:15:26.741Z,23.60
2019-04-22T13:18:03.125Z,23.70
2019-04-22T13:20:22.348Z,23.80
2019-04-22T13:22:55.013Z,23.90
2019-04-22T13:25:26.982Z,23.90
2019-04-22T13:27:55.326Z,23.90
2019-04-22T13:30:26.274Z,23.90
2019-04-22T13:32:56.951Z,23.90
2019-04-22T13:35:26.100Z,23.90
2019-04-22T13:37:57.209Z,24.00
2019-04-22T13:40:25.180Z,24.00
2019-04-22T13:42:53.482Z,24.10
2019-04-22T13:45:22.198Z,24.20
2019-04-22T13:48:08.725Z,24.10
2019-04-22T13:50:50.200Z,24.20
2019-04-22T13:53:30.074Z,24.20
2019-04-22T13:55:45.029Z,24.20
2019-04-22T13:57:58.399Z,24.20
2019-04-22T14:00:26.728Z,24.10
2019-04-22T14:03:08.829Z,24.00
2019-04-22T14:05:37.359Z,24.10
2019-04-22T14:08:06.280Z,24.10
2019-04-22T14:10:34.268Z,24.00
2019-04-22T14:13:02.044Z,23.90
2019-04-22T14:15:29.873Z,23.80
2019-04-22T14:17:56.885Z,23.70
2019-04-22T14:20:27.698Z,23.60
2019-04-22T14:22:54.776Z,23.50
2019-04-22T14:25:22.811Z,23.40
2019-04-22T14:27:57.735Z,23.30
2019-04-22T14:30:19.053Z,23.20
2019-04-22T14:32:45.857Z,23.00
2019-04-22T14:35:13.237Z,22.90
2019-04-22T14:37:40.339Z,22.90
2019-04-22T14:40:09.459Z,22.80
2019-04-22T14:42:58.944Z,22.80
2019-04-22T14:45:58.724Z,22.80
2019-04-22T14:47:59.382Z,22.70
2019-04-22T14:50:32.808Z,22.70
2019-04-22T14:52:58.166Z,22.60
2019-04-22T14:55:15.035Z,22.60
2019-04-22T14:57:37.763Z,22.60
2019-04-22T15:00:11.431Z,22.50
2019-04-22T15:02:39.429Z,22.50
2019-04-22T15:05:08.033Z,22.50
2019-04-22T15:07:35.104Z,22.50
2019-04-22T15:10:06.086Z,22.50
2019-04-22T15:12:39.252Z,22.50
2019-04-22T15:15:03.862Z,22.50
2019-04-22T15:17:47.112Z,22.50
2019-04-22T15:20:16.154Z,22.50
2019-04-22T15:22:42.713Z,22.50
2019-04-22T15:25:10.426Z,22.40
2019-04-22T15:27:37.395Z,22.30
2019-04-22T15:30:05.923Z,22.20
2019-04-22T15:32:33.531Z,22.00
2019-04-22T15:35:01.846Z,21.90
2019-04-22T15:37:30.842Z,21.70
2019-04-22T15:39:58.561Z,21.60
2019-04-22T15:42:28.745Z,21.50
2019-04-22T15:44:55.836Z,21.40
2019-04-22T15:47:22.939Z,21.30
2019-04-22T15:49:49.965Z,21.30
2019-04-22T15:52:16.754Z,21.30
2019-04-22T15:54:47.049Z,21.30
2019-04-22T15:57:12.884Z,21.30
2019-04-22T15:59:57.777Z,21.30
2019-04-22T16:02:08.638Z,21.40
2019-04-22T16:04:36.820Z,21.50
2019-04-22T16:07:05.054Z,21.50
2019-04-22T16:09:33.063Z,21.60
2019-04-22T16:12:12.811Z,21.60
2019-04-22T16:14:36.635Z,21.70
2019-04-22T16:16:56.778Z,21.70
2019-04-22T16:19:25.252Z,21.70
2019-04-22T16:21:59.401Z,21.70
2019-04-22T16:24:40.279Z,21.70
2019-04-22T16:27:08.900Z,21.60
2019-04-22T16:29:37.104Z,21.60
2019-04-22T16:32:05.196Z,21.50
2019-04-22T16:34:32.031Z,21.50
2019-04-22T16:36:58.682Z,21.40
2019-04-22T16:39:25.197Z,21.40
2019-04-22T16:41:52.810Z,21.30
2019-04-22T16:44:20.547Z,21.20
2019-04-22T16:46:47.710Z,21.10
2019-04-22T16:49:15.816Z,21.00
2019-04-22T16:51:42.810Z,20.80
2019-04-22T16:54:09.548Z,20.70
2019-04-22T16:56:37.234Z,20.70
2019-04-22T16:59:04.546Z,20.60
2019-04-22T17:01:40.937Z,20.50
2019-04-22T17:04:20.803Z,20.40
2019-04-22T17:06:49.789Z,20.40
2019-04-22T17:09:17.764Z,20.20
2019-04-22T17:11:45.616Z,20.20
2019-04-22T17:14:13.405Z,20.20
2019-04-22T17:16:42.013Z,20.20
2019-04-22T17:19:09.059Z,20.20
2019-04-22T17:21:35.730Z,20.20
2019-04-22T17:24:03.595Z,20.20
2019-04-22T17:26:30.494Z,20.20
2019-04-22T17:28:58.091Z,20.20
2019-04-22T17:31:26.805Z,20.20
2019-04-22T17:33:54.869Z,20.10
2019-04-22T17:36:22.428Z,20.10
2019-04-22T17:38:58.428Z,20.00
2019-04-22T17:41:28.602Z,20.00
2019-04-22T17:44:12.249Z,19.90
2019-04-22T17:46:36.000Z,19.80
2019-04-22T17:49:16.999Z,19.70
2019-04-22T17:52:09.075Z,19.70
2019-04-22T17:54:32.206Z,19.60
2019-04-22T17:57:02.039Z,19.50
2019-04-22T17:59:36.016Z,19.50
2019-04-22T18:01:53.888Z,19.40
2019-04-22T18:04:07.153Z,19.40
2019-04-22T18:07:05.727Z,19.30
2019-04-22T18:09:40.265Z,19.30
2019-04-22T18:11:56.378Z,19.20
2019-04-22T18:14:44.903Z,19.20
2019-04-22T18:16:55.753Z,19.10
2019-04-22T18:19:21.233Z,19.00
2019-04-22T18:21:47.642Z,19.00
2019-04-22T18:24:07.941Z,18.80
2019-04-22T18:26:47.875Z,18.80
2019-04-22T18:29:16.268Z,18.70
2019-04-22T18:31:35.906Z,18.60
2019-04-22T18:34:08.331Z,18.60
2019-04-22T18:36:37.526Z,18.50
2019-04-22T18:39:20.429Z,18.40
2019-04-22T18:41:40.602Z,18.40
2019-04-22T18:44:09.726Z,18.40
2019-04-22T18:46:37.125Z,18.30
2019-04-22T18:49:00.594Z,18.20
2019-04-22T18:51:42.390Z,18.20
2019-04-22T18:54:16.623Z,18.20
2019-04-22T18:56:40.414Z,18.10
2019-04-22T18:58:55.879Z,18.10
2019-04-22T19:01:17.750Z,18.10
2019-04-22T19:03:55.148Z,18.00
2019-04-22T19:06:42.179Z,18.00
2019-04-22T19:09:14.065Z,17.90
2019-04-22T19:11:41.361Z,17.90
2019-04-22T19:19:21.217Z,17.80
2019-04-22T19:21:27.999Z,17.70
2019-04-22T19:23:54.028Z,17.70
2019-04-22T19:26:35.721Z,17.70
2019-04-22T19:28:54.411Z,17.70
2019-04-22T19:31:24.746Z,17.60
2019-04-22T19:33:55.115Z,17.60
2019-04-22T19:36:20.743Z,17.60
2019-04-22T19:38:40.985Z,17.60
2019-04-22T19:41:21.314Z,17.50
2019-04-22T19:43:46.202Z,17.50
2019-04-22T19:46:08.871Z,17.50
2019-04-22T19:48:46.927Z,17.40
2019-04-22T19:51:27.907Z,17.40
2019-04-22T19:53:43.901Z,17.40
2019-04-22T19:55:59.889Z,17.30
2019-04-22T19:58:32.469Z,17.30
2019-04-22T20:00:54.665Z,17.30
2019-04-22T20:03:46.381Z,17.20
2019-04-22T20:06:05.643Z,17.20
2019-04-22T20:08:34.843Z,17.20
2019-04-22T20:11:07.169Z,17.10
2019-04-22T20:13:37.068Z,17.10
2019-04-22T20:15:54.039Z,17.10
2019-04-22T20:18:34.614Z,17.10
2019-04-22T20:20:58.086Z,17.10
2019-04-22T20:23:24.249Z,17.10
2019-04-22T20:25:51.094Z,17.00
2019-04-22T20:28:29.084Z,17.00
2019-04-22T20:30:50.491Z,17.00
2019-04-22T20:33:26.026Z,17.00
2019-04-22T20:35:52.017Z,16.90
2019-04-22T20:38:21.368Z,16.90
2019-04-22T20:40:44.288Z,16.90
2019-04-22T20:43:27.281Z,16.80
2019-04-22T20:45:45.870Z,16.80
2019-04-22T20:48:05.025Z,16.80
2019-04-22T20:50:41.694Z,16.60
2019-04-22T20:53:11.778Z,16.70
2019-04-22T20:55:40.510Z,16.70
2019-04-22T20:58:10.636Z,16.60
2019-04-22T21:00:30.919Z,16.60
2019-04-22T21:02:56.866Z,16.60
2019-04-22T21:05:27.339Z,16.60
2019-04-22T21:08:07.970Z,16.50
2019-04-22T21:10:30.434Z,16.50
2019-04-22T21:12:56.746Z,16.50
2019-04-22T21:15:32.572Z,16.40
2019-04-22T21:17:55.323Z,16.40
2019-04-22T21:20:34.841Z,16.40
2019-04-22T21:22:58.462Z,16.30
2019-04-22T21:25:18.206Z,16.30
2019-04-22T21:28:00.124Z,16.30
2019-04-22T21:30:29.170Z,16.20
2019-04-22T21:32:53.477Z,16.20
2019-04-22T21:35:40.435Z,16.10
2019-04-22T21:37:57.855Z,16.20
2019-04-22T21:40:30.158Z,16.10
2019-04-22T21:42:59.610Z,16.00
2019-04-22T21:45:21.736Z,16.00
2019-04-22T21:48:09.567Z,16.00
2019-04-22T21:50:41.378Z,16.00
2019-04-22T21:53:00.624Z,15.90
2019-04-22T21:55:29.817Z,15.90
2019-04-22T21:58:06.960Z,15.90
2019-04-22T22:00:44.506Z,15.90
2019-04-22T22:03:11.705Z,15.80
2019-04-22T22:05:27.132Z,15.80
2019-04-22T22:07:49.428Z,15.80
2019-04-22T22:10:29.512Z,15.70
2019-04-22T22:13:00.650Z,15.70
2019-04-22T22:15:24.866Z,15.70
2019-04-22T22:17:52.674Z,15.70
2019-04-22T22:20:24.012Z,15.70
2019-04-22T22:23:00.661Z,15.60
2019-04-22T22:25:23.961Z,15.60
2019-04-22T22:27:59.845Z,15.60
2019-04-22T22:30:42.702Z,15.60
2019-04-22T22:33:01.601Z,15.50
2019-04-22T22:35:26.067Z,15.50
2019-04-22T22:37:53.446Z,15.50
2019-04-22T22:40:11.971Z,15.50
2019-04-22T22:42:41.814Z,15.50
2019-04-22T22:45:19.269Z,15.50
2019-04-22T22:47:53.620Z,15.40
2019-04-22T22:50:28.504Z,15.40
2019-04-22T22:53:10.864Z,15.30
2019-04-22T22:55:28.921Z,15.30
2019-04-22T22:57:58.294Z,15.30
2019-04-22T23:00:24.496Z,15.30
2019-04-22T23:03:27.502Z,15.20
2019-04-22T23:05:30.590Z,15.20
2019-04-22T23:07:59.054Z,15.20
2019-04-22T23:10:33.929Z,15.20
2019-04-22T23:13:00.470Z,15.20
2019-04-22T23:15:25.345Z,15.10
2019-04-22T23:17:37.841Z,15.10
2019-04-22T23:20:07.171Z,15.10
2019-04-22T23:22:58.347Z,15.10
2019-04-22T23:25:34.020Z,15.00
2019-04-22T23:28:13.322Z,15.00
2019-04-22T23:30:35.915Z,15.00
2019-04-22T23:33:12.886Z,14.90
2019-04-22T23:35:42.514Z,14.90
2019-04-22T23:38:11.989Z,14.90
2019-04-22T23:40:42.876Z,14.80
2019-04-22T23:43:15.494Z,14.80
2019-04-22T23:45:46.678Z,14.80
2019-04-22T23:48:10.106Z,14.80
2019-04-22T23:50:37.570Z,14.80
2019-04-22T23:53:33.084Z,14.80
2019-04-22T23:55:54.249Z,14.70
2019-04-22T23:58:45.551Z,14.60
